TJBQ/BQN METAR and TAF weather

Enter ICAO airport designator
Station Type Date Time Source
TJBQ METAR 2020/07/04 00:50 UTC NOAA

TJBQ 040050Z 08010KT 10SM BKN044 BKN050 A3000


Station Type Date Time Source
TJBQ Decoded METAR 2020/07/04 00:50 UTC NOAA

Aquadilla, Rafael Hernandez Airport, PR, United States (TJBQ) 18-30N 067-08W 69M
Jul 03, 2020 - 08:50 PM EDT / 2020.07.04 0050 UTC
Wind: from the E (080 degrees) at 12 MPH (10 KT):0
Visibility: 10 mile(s):0
Sky conditions: mostly cloudy
Pressure (altimeter): 30 in. Hg (1015 hPa)
ob: TJBQ 040050Z 08010KT 10SM BKN044 BKN050 A3000
cycle: 1

Station Type Date Time Source
TJBQ TAF 2020/07/03 18:54 UTC NOAA

TAF TJBQ 031740Z 0318/0418 08011KT P6SM FEW035 SCT040
FM041700 09015KT P6SM VCSH SCT035 SCT040
AMD NOT SKED 0402/0411

Example: see airport list